createdAt,value
2018-11-03T00:02:01.534Z,53.00
2018-11-03T00:04:32.944Z,53.00
2018-11-03T00:07:03.729Z,53.00
2018-11-03T00:09:34.463Z,53.00
2018-11-03T00:12:06.260Z,53.10
2018-11-03T00:14:37.417Z,53.00
2018-11-03T00:17:10.212Z,53.30
2018-11-03T00:19:41.065Z,53.10
2018-11-03T00:22:13.158Z,53.00
2018-11-03T00:24:44.038Z,53.10
2018-11-03T00:27:15.256Z,53.20
2018-11-03T00:29:46.188Z,53.20
2018-11-03T00:32:16.999Z,53.30
2018-11-03T00:34:47.843Z,53.40
2018-11-03T00:37:18.936Z,53.40
2018-11-03T00:39:50.290Z,53.40
2018-11-03T00:42:21.171Z,53.40
2018-11-03T00:44:52.316Z,53.40
2018-11-03T00:47:23.319Z,53.40
2018-11-03T00:49:54.216Z,53.50
2018-11-03T00:52:25.551Z,53.50
2018-11-03T00:54:57.516Z,53.60
2018-11-03T00:57:28.609Z,53.60
2018-11-03T00:59:59.759Z,53.60
2018-11-03T01:02:30.588Z,53.60
2018-11-03T01:05:01.558Z,53.70
2018-11-03T01:07:32.125Z,53.60
2018-11-03T01:10:04.036Z,53.70
2018-11-03T01:12:35.230Z,53.80
2018-11-03T01:15:07.631Z,54.10
2018-11-03T01:17:38.416Z,54.10
2018-11-03T01:20:12.320Z,54.20
2018-11-03T01:22:43.482Z,54.20
2018-11-03T01:25:14.368Z,54.30
2018-11-03T01:27:45.398Z,54.10
2018-11-03T01:30:17.425Z,54.20
2018-11-03T01:32:48.567Z,54.30
2018-11-03T01:35:19.502Z,54.40
2018-11-03T01:37:50.261Z,54.50
2018-11-03T01:40:21.148Z,54.40
2018-11-03T01:42:52.040Z,54.30
2018-11-03T01:45:22.813Z,54.40
2018-11-03T01:47:53.689Z,54.50
2018-11-03T01:50:24.332Z,54.50
2018-11-03T01:52:55.075Z,54.50
2018-11-03T01:55:25.956Z,54.30
2018-11-03T01:57:56.781Z,54.50
2018-11-03T02:00:27.857Z,54.40
2018-11-03T02:02:58.914Z,54.50
2018-11-03T02:05:29.850Z,54.50
2018-11-03T02:08:00.569Z,54.50
2018-11-03T02:10:31.443Z,54.60
2018-11-03T02:13:02.462Z,54.50
2018-11-03T02:15:33.220Z,54.50
2018-11-03T02:18:03.956Z,54.60
2018-11-03T02:20:35.021Z,54.60
2018-11-03T02:23:06.306Z,55.10
2018-11-03T02:25:37.282Z,54.60
2018-11-03T02:28:08.322Z,54.60
2018-11-03T02:30:39.200Z,55.10
2018-11-03T02:33:16.670Z,54.50
2018-11-03T02:35:47.847Z,54.60
2018-11-03T02:38:18.850Z,54.60
2018-11-03T02:40:49.765Z,54.60
2018-11-03T02:43:20.536Z,54.70
2018-11-03T02:45:51.538Z,54.70
2018-11-03T02:48:22.416Z,54.70
2018-11-03T02:50:53.078Z,54.70
2018-11-03T02:53:24.595Z,54.70
2018-11-03T02:55:55.450Z,54.70
2018-11-03T02:58:26.281Z,54.70
2018-11-03T03:00:57.159Z,54.70
2018-11-03T03:03:28.009Z,54.60
2018-11-03T03:05:58.814Z,54.80
2018-11-03T03:08:29.862Z,54.80
2018-11-03T03:11:00.609Z,54.90
2018-11-03T03:13:31.530Z,54.80
2018-11-03T03:16:02.489Z,54.70
2018-11-03T03:18:33.232Z,54.90
2018-11-03T03:21:04.559Z,54.90
2018-11-03T03:23:35.396Z,54.70
2018-11-03T03:26:07.603Z,54.80
2018-11-03T03:28:38.703Z,54.90
2018-11-03T03:31:09.763Z,54.80
2018-11-03T03:33:40.991Z,54.90
2018-11-03T03:36:11.994Z,54.80
2018-11-03T03:38:42.881Z,54.90
2018-11-03T03:41:13.571Z,54.90
2018-11-03T03:43:44.623Z,54.80
2018-11-03T03:46:15.589Z,55.00
2018-11-03T03:48:46.482Z,55.00
2018-11-03T03:51:17.179Z,54.90
2018-11-03T03:53:48.265Z,54.90
2018-11-03T03:56:19.629Z,55.00
2018-11-03T03:58:50.504Z,55.00
2018-11-03T04:01:21.525Z,55.10
2018-11-03T04:03:52.398Z,55.10
2018-11-03T04:06:23.297Z,55.00
2018-11-03T04:08:54.109Z,55.00
2018-11-03T04:11:24.917Z,55.00
2018-11-03T04:13:55.654Z,55.00
2018-11-03T04:16:26.606Z,55.10
2018-11-03T04:18:57.478Z,55.00
2018-11-03T04:21:29.563Z,55.10
2018-11-03T04:24:00.392Z,55.00
2018-11-03T04:26:31.685Z,55.20
2018-11-03T04:29:02.714Z,55.20
2018-11-03T04:31:34.124Z,56.00
2018-11-03T04:34:05.225Z,55.40
2018-11-03T04:36:35.693Z,55.30
2018-11-03T04:39:07.801Z,55.40
2018-11-03T04:41:38.582Z,55.40
2018-11-03T04:44:09.844Z,55.40
2018-11-03T04:46:40.568Z,55.40
2018-11-03T04:49:11.792Z,55.40
2018-11-03T04:51:42.650Z,55.50
2018-11-03T04:54:13.748Z,55.60
2018-11-03T04:56:44.833Z,55.60
2018-11-03T04:59:15.929Z,55.70
2018-11-03T05:01:47.415Z,56.80
2018-11-03T05:04:18.429Z,55.70
2018-11-03T05:06:49.373Z,55.80
2018-11-03T05:09:20.220Z,55.80
2018-11-03T05:11:51.435Z,55.80
2018-11-03T05:14:22.204Z,55.80
2018-11-03T05:16:53.180Z,56.00
2018-11-03T05:19:23.971Z,55.80
2018-11-03T05:21:54.772Z,55.80
2018-11-03T05:24:25.520Z,55.80
2018-11-03T05:26:56.517Z,55.70
2018-11-03T05:29:27.389Z,55.60
2018-11-03T05:31:58.255Z,55.70
2018-11-03T05:34:29.144Z,55.70
2018-11-03T05:37:00.003Z,55.80
2018-11-03T05:39:30.853Z,55.80
2018-11-03T05:42:01.653Z,56.40
2018-11-03T05:44:32.485Z,55.70
2018-11-03T05:47:03.578Z,55.80
2018-11-03T05:49:34.622Z,55.80
2018-11-03T05:52:05.916Z,55.80
2018-11-03T05:54:36.739Z,56.30
2018-11-03T05:57:07.734Z,55.80
2018-11-03T05:59:38.724Z,55.80
2018-11-03T06:02:09.432Z,55.80
2018-11-03T06:04:40.159Z,55.90
2018-11-03T06:07:11.079Z,55.80
2018-11-03T06:09:41.897Z,56.00
2018-11-03T06:12:12.780Z,56.10
2018-11-03T06:14:43.889Z,56.10
2018-11-03T06:17:14.862Z,56.10
2018-11-03T06:19:45.472Z,56.10
2018-11-03T06:22:16.471Z,56.10
2018-11-03T06:24:48.383Z,56.20
2018-11-03T06:27:19.461Z,56.20
2018-11-03T06:29:50.546Z,56.10
2018-11-03T06:32:21.029Z,56.20
2018-11-03T06:34:52.526Z,56.20
2018-11-03T06:37:23.422Z,56.20
2018-11-03T06:39:54.157Z,56.30
2018-11-03T06:42:25.451Z,56.30
2018-11-03T06:44:56.164Z,56.40
2018-11-03T06:47:27.243Z,56.50
2018-11-03T06:49:58.024Z,56.50
2018-11-03T06:52:29.054Z,56.50
2018-11-03T06:54:59.828Z,56.70
2018-11-03T06:57:30.724Z,56.60
2018-11-03T07:00:01.806Z,56.80
2018-11-03T07:02:35.558Z,56.70
2018-11-03T07:05:08.181Z,56.90
2018-11-03T07:07:39.390Z,56.80
2018-11-03T07:10:11.217Z,56.80
2018-11-03T07:12:48.705Z,56.80
2018-11-03T07:15:19.565Z,56.80
2018-11-03T07:17:50.369Z,56.90
2018-11-03T07:20:21.103Z,56.90
2018-11-03T07:22:52.002Z,56.90
2018-11-03T07:25:23.050Z,56.80
2018-11-03T07:27:54.005Z,56.90
2018-11-03T07:30:24.592Z,56.90
2018-11-03T07:32:55.752Z,56.90
2018-11-03T07:35:26.776Z,56.90
2018-11-03T07:37:57.703Z,56.90
2018-11-03T07:40:28.415Z,57.10
2018-11-03T07:42:59.277Z,57.20
2018-11-03T07:45:30.281Z,57.20
2018-11-03T07:48:01.030Z,57.30
2018-11-03T07:50:32.041Z,57.30
2018-11-03T07:53:03.260Z,57.20
2018-11-03T07:55:34.146Z,57.20
2018-11-03T07:58:05.550Z,57.20
2018-11-03T08:00:36.509Z,57.10
2018-11-03T08:03:07.379Z,57.00
2018-11-03T08:05:41.452Z,57.10
2018-11-03T08:08:12.370Z,57.20
2018-11-03T08:10:43.065Z,57.10
2018-11-03T08:13:20.778Z,57.20
2018-11-03T08:15:51.739Z,57.20
2018-11-03T08:18:22.713Z,57.20
2018-11-03T08:20:53.911Z,57.30
2018-11-03T08:23:25.045Z,57.20
2018-11-03T08:25:56.053Z,57.10
2018-11-03T08:28:26.859Z,57.00
2018-11-03T08:30:57.433Z,57.10
2018-11-03T08:33:28.524Z,57.10
2018-11-03T08:35:59.437Z,57.10
2018-11-03T08:38:30.427Z,57.20
2018-11-03T08:41:01.531Z,57.30
2018-11-03T08:43:32.217Z,57.40
2018-11-03T08:46:03.604Z,57.40
2018-11-03T08:48:34.676Z,57.60
2018-11-03T08:51:06.193Z,57.60
2018-11-03T08:53:43.529Z,57.70
2018-11-03T08:56:14.445Z,57.90
2018-11-03T08:58:45.290Z,58.00
2018-11-03T09:01:16.353Z,58.00
2018-11-03T09:03:47.378Z,58.00
2018-11-03T09:06:18.576Z,58.20
2018-11-03T09:08:49.894Z,58.10
2018-11-03T09:11:20.686Z,57.30
2018-11-03T09:13:51.723Z,57.20
2018-11-03T09:16:22.445Z,57.00
2018-11-03T09:18:53.314Z,57.00
2018-11-03T09:21:24.221Z,57.10
2018-11-03T09:23:54.989Z,56.90
2018-11-03T09:26:25.921Z,56.90
2018-11-03T09:28:57.417Z,57.30
2018-11-03T09:31:28.227Z,56.80
2018-11-03T09:33:59.200Z,56.60
2018-11-03T09:36:30.143Z,55.60
2018-11-03T09:39:00.891Z,56.50
2018-11-03T09:41:31.931Z,56.80
2018-11-03T09:44:02.802Z,55.40
2018-11-03T09:46:33.561Z,55.20
2018-11-03T09:49:05.001Z,54.50
2018-11-03T09:51:36.290Z,54.20
2018-11-03T09:54:07.643Z,54.30
2018-11-03T09:56:38.792Z,53.90
2018-11-03T09:59:10.110Z,53.10
2018-11-03T10:01:41.088Z,53.00
2018-11-03T10:04:11.922Z,53.10
2018-11-03T10:06:43.005Z,52.80
2018-11-03T10:09:13.921Z,52.60
2018-11-03T10:11:45.200Z,52.30
2018-11-03T10:14:16.405Z,52.40
2018-11-03T10:16:47.482Z,52.60
2018-11-03T10:19:18.565Z,51.90
2018-11-03T10:21:49.424Z,51.70
2018-11-03T10:24:20.454Z,51.60
2018-11-03T10:26:51.269Z,51.50
2018-11-03T10:29:22.289Z,51.50
2018-11-03T10:31:53.524Z,50.70
2018-11-03T10:34:24.224Z,50.30
2018-11-03T10:36:55.326Z,50.00
2018-11-03T10:39:26.399Z,50.00
2018-11-03T10:41:57.329Z,49.80
2018-11-03T10:44:28.458Z,49.80
2018-11-03T10:46:59.656Z,48.40
2018-11-03T10:49:30.799Z,47.50
2018-11-03T10:52:01.646Z,47.60
2018-11-03T10:54:33.061Z,47.10
2018-11-03T10:57:03.864Z,47.70
2018-11-03T10:59:35.169Z,47.90
2018-11-03T11:02:11.778Z,47.40
2018-11-03T11:04:47.801Z,47.10
2018-11-03T11:07:23.653Z,47.50
2018-11-03T11:09:59.925Z,47.80
2018-11-03T11:12:38.529Z,46.90
2018-11-03T11:15:10.597Z,46.00
2018-11-03T11:17:41.562Z,45.90
2018-11-03T11:20:12.621Z,46.30
2018-11-03T11:22:43.648Z,46.50
2018-11-03T11:25:14.807Z,46.60
2018-11-03T11:27:45.952Z,46.40
2018-11-03T11:30:16.903Z,46.40
2018-11-03T11:32:47.917Z,46.50
2018-11-03T11:35:20.656Z,46.30
2018-11-03T11:37:51.365Z,45.80
2018-11-03T11:40:22.174Z,46.00
2018-11-03T11:42:53.171Z,45.20
2018-11-03T11:45:24.421Z,44.50
2018-11-03T11:47:55.425Z,44.50
2018-11-03T11:50:26.313Z,44.30
2018-11-03T11:52:57.209Z,44.20
2018-11-03T11:55:28.709Z,44.40
2018-11-03T11:57:59.763Z,43.70
2018-11-03T12:00:31.492Z,43.80
2018-11-03T12:03:02.633Z,43.20
2018-11-03T12:05:33.724Z,43.20
2018-11-03T12:08:04.862Z,43.50
2018-11-03T12:10:35.875Z,43.70
2018-11-03T12:13:07.390Z,43.00
2018-11-03T12:15:38.315Z,42.50
2018-11-03T12:18:09.280Z,42.20
2018-11-03T12:20:40.368Z,42.20
2018-11-03T12:23:11.554Z,42.10
2018-11-03T12:25:42.809Z,42.30
2018-11-03T12:28:14.530Z,41.50
2018-11-03T12:30:45.618Z,41.50
2018-11-03T12:33:16.566Z,41.60
2018-11-03T12:35:47.658Z,41.00
2018-11-03T12:38:18.598Z,40.90
2018-11-03T12:40:49.554Z,40.50
2018-11-03T12:43:20.678Z,40.70
2018-11-03T12:45:51.676Z,40.80
2018-11-03T12:48:22.792Z,40.60
2018-11-03T12:50:53.685Z,41.10
2018-11-03T12:53:24.722Z,40.60
2018-11-03T12:55:55.687Z,40.70
2018-11-03T12:58:26.328Z,40.40
2018-11-03T13:00:57.171Z,40.50
2018-11-03T13:03:27.950Z,40.60
2018-11-03T13:05:58.797Z,40.60
2018-11-03T13:08:29.703Z,40.70
2018-11-03T13:11:00.989Z,40.50
2018-11-03T13:13:31.545Z,40.70
2018-11-03T13:16:02.354Z,40.70
2018-11-03T13:18:33.560Z,40.80
2018-11-03T13:21:04.427Z,40.90
2018-11-03T13:23:35.272Z,40.90
2018-11-03T13:26:06.429Z,41.10
2018-11-03T13:28:38.272Z,41.30
2018-11-03T13:31:10.363Z,41.30
2018-11-03T13:33:41.399Z,41.70
2018-11-03T13:36:12.348Z,42.10
2018-11-03T13:38:43.294Z,42.80
2018-11-03T13:41:14.194Z,43.00
2018-11-03T13:43:45.130Z,42.90
2018-11-03T13:46:15.978Z,42.70
2018-11-03T13:48:47.424Z,43.40
2018-11-03T13:51:18.740Z,42.00
2018-11-03T13:53:50.014Z,41.70
2018-11-03T13:56:21.016Z,41.60
2018-11-03T13:58:52.388Z,41.70
2018-11-03T14:01:23.431Z,41.80
2018-11-03T14:03:54.426Z,42.00
2018-11-03T14:06:24.988Z,42.00
2018-11-03T14:08:55.963Z,41.90
2018-11-03T14:11:27.152Z,41.80
2018-11-03T14:13:58.137Z,41.80
2018-11-03T14:16:29.031Z,41.70
2018-11-03T14:18:59.940Z,41.70
2018-11-03T14:21:30.820Z,41.60
2018-11-03T14:24:02.480Z,41.00
2018-11-03T14:26:33.308Z,41.70
2018-11-03T14:29:04.645Z,41.80
2018-11-03T14:31:36.301Z,41.80
2018-11-03T14:34:07.173Z,42.10
2018-11-03T14:36:38.217Z,42.10
2018-11-03T14:39:10.479Z,42.00
2018-11-03T14:41:42.230Z,41.90
2018-11-03T14:44:13.226Z,42.10
2018-11-03T14:46:44.257Z,42.20
2018-11-03T14:49:15.492Z,42.20
2018-11-03T14:51:46.858Z,42.30
2018-11-03T14:54:17.629Z,42.40
2018-11-03T14:56:48.471Z,42.20
2018-11-03T14:59:19.300Z,42.00
2018-11-03T15:01:50.066Z,42.00
2018-11-03T15:04:20.852Z,40.60
2018-11-03T15:06:51.709Z,42.00
2018-11-03T15:09:22.951Z,42.60
2018-11-03T15:11:54.107Z,42.20
2018-11-03T15:14:25.353Z,42.20
2018-11-03T15:16:56.353Z,42.90
2018-11-03T15:19:27.288Z,42.30
2018-11-03T15:21:58.018Z,42.30
2018-11-03T15:24:28.762Z,42.30
2018-11-03T15:26:59.787Z,42.30
2018-11-03T15:29:30.776Z,42.30
2018-11-03T15:32:03.078Z,42.30
2018-11-03T15:34:34.072Z,42.20
2018-11-03T15:37:05.156Z,42.30
2018-11-03T15:39:36.177Z,42.30
2018-11-03T15:42:07.428Z,42.40
2018-11-03T15:44:38.203Z,42.40
2018-11-03T15:47:09.175Z,42.50
2018-11-03T15:49:40.029Z,42.60
2018-11-03T15:52:11.415Z,42.60
2018-11-03T15:54:42.319Z,42.60
2018-11-03T15:57:13.335Z,42.70
2018-11-03T15:59:44.173Z,42.80
2018-11-03T16:02:15.253Z,43.00
2018-11-03T16:04:46.005Z,43.00
2018-11-03T16:07:16.858Z,43.00
2018-11-03T16:09:47.747Z,43.10
2018-11-03T16:12:19.392Z,43.10
2018-11-03T16:14:50.434Z,43.30
2018-11-03T16:17:21.298Z,43.20
2018-11-03T16:19:52.084Z,43.30
2018-11-03T16:22:22.899Z,43.40
2018-11-03T16:24:53.848Z,43.60
2018-11-03T16:27:24.678Z,43.60
2018-11-03T16:29:55.573Z,43.70
2018-11-03T16:32:26.780Z,43.80
2018-11-03T16:34:57.735Z,43.90
2018-11-03T16:37:28.601Z,44.10
2018-11-03T16:39:59.511Z,44.20
2018-11-03T16:42:30.263Z,44.30
2018-11-03T16:45:01.257Z,44.30
2018-11-03T16:47:32.048Z,44.40
2018-11-03T16:50:02.834Z,44.50
2018-11-03T16:52:33.979Z,44.60
2018-11-03T16:55:06.102Z,44.40
2018-11-03T16:57:37.605Z,45.00
2018-11-03T17:00:13.904Z,44.70
2018-11-03T17:02:44.878Z,44.80
2018-11-03T17:05:16.323Z,44.90
2018-11-03T17:07:47.151Z,44.90
2018-11-03T17:10:18.312Z,45.00
2018-11-03T17:12:56.370Z,45.00
2018-11-03T17:15:27.445Z,45.10
2018-11-03T17:17:58.444Z,45.10
2018-11-03T17:20:29.054Z,45.30
2018-11-03T17:23:00.013Z,45.40
2018-11-03T17:25:30.973Z,45.60
2018-11-03T17:28:01.895Z,45.40
2018-11-03T17:30:32.852Z,45.40
2018-11-03T17:33:04.011Z,45.50
2018-11-03T17:35:34.811Z,45.60
2018-11-03T17:38:06.191Z,45.60
2018-11-03T17:40:37.051Z,45.70
2018-11-03T17:43:08.231Z,45.90
2018-11-03T17:45:39.312Z,45.90
2018-11-03T17:48:10.296Z,46.80
2018-11-03T17:50:41.130Z,46.00
2018-11-03T17:53:12.077Z,46.10
2018-11-03T17:55:43.043Z,46.20
2018-11-03T17:58:13.815Z,46.10
2018-11-03T18:00:44.769Z,46.20
2018-11-03T18:03:16.085Z,46.30
2018-11-03T18:05:47.079Z,47.30
2018-11-03T18:08:17.897Z,47.50
2018-11-03T18:10:48.800Z,47.50
2018-11-03T18:13:19.806Z,47.60
2018-11-03T18:15:50.619Z,47.60
2018-11-03T18:18:21.482Z,47.70
2018-11-03T18:20:52.267Z,47.70
2018-11-03T18:23:23.179Z,47.80
2018-11-03T18:25:55.412Z,47.00
2018-11-03T18:28:26.464Z,47.30
2018-11-03T18:30:57.458Z,47.90
2018-11-03T18:33:29.210Z,47.90
2018-11-03T18:36:00.162Z,48.00
2018-11-03T18:38:30.770Z,48.30
2018-11-03T18:41:02.182Z,48.30
2018-11-03T18:43:33.630Z,48.20
2018-11-03T18:46:04.606Z,48.40
2018-11-03T18:48:35.799Z,48.90
2018-11-03T18:51:07.153Z,48.30
2018-11-03T18:53:38.076Z,48.30
2018-11-03T18:56:09.155Z,48.30
2018-11-03T18:58:41.074Z,48.50
2018-11-03T19:01:11.921Z,48.40
2018-11-03T19:03:43.287Z,48.60
2018-11-03T19:06:14.095Z,48.70
2018-11-03T19:08:44.941Z,48.90
2018-11-03T19:11:16.020Z,48.90
2018-11-03T19:13:46.926Z,49.00
2018-11-03T19:16:17.874Z,48.90
2018-11-03T19:18:48.689Z,49.10
2018-11-03T19:21:19.686Z,49.10
2018-11-03T19:23:50.660Z,49.20
2018-11-03T19:26:21.831Z,49.20
2018-11-03T19:28:52.547Z,49.40
2018-11-03T19:31:23.626Z,49.50
2018-11-03T19:33:54.373Z,49.50
2018-11-03T19:36:25.318Z,49.50
2018-11-03T19:38:56.278Z,49.60
2018-11-03T19:41:34.217Z,49.70
2018-11-03T19:44:05.688Z,49.80
2018-11-03T19:46:36.756Z,49.80
2018-11-03T19:49:08.677Z,50.00
2018-11-03T19:51:39.587Z,50.00
2018-11-03T19:54:10.694Z,49.90
2018-11-03T19:56:41.706Z,49.80
2018-11-03T19:59:12.668Z,50.00
2018-11-03T20:01:43.559Z,50.10
2018-11-03T20:04:14.718Z,50.20
2018-11-03T20:06:45.637Z,50.20
2018-11-03T20:09:16.514Z,50.20
2018-11-03T20:11:47.525Z,50.20
2018-11-03T20:14:18.401Z,50.20
2018-11-03T20:16:49.369Z,50.30
2018-11-03T20:19:20.510Z,50.40
2018-11-03T20:21:57.930Z,50.50
2018-11-03T20:24:28.939Z,50.50
2018-11-03T20:26:59.909Z,50.50
2018-11-03T20:29:31.038Z,50.40
2018-11-03T20:32:01.798Z,50.40
2018-11-03T20:34:32.778Z,50.60
2018-11-03T20:37:03.703Z,50.50
2018-11-03T20:39:34.490Z,50.60
2018-11-03T20:42:05.992Z,50.70
2018-11-03T20:44:36.849Z,50.70
2018-11-03T20:47:07.681Z,50.60
2018-11-03T20:49:39.099Z,50.70
2018-11-03T20:52:10.347Z,50.70
2018-11-03T20:54:41.152Z,50.90
2018-11-03T20:57:11.988Z,50.90
2018-11-03T20:59:42.903Z,50.90
2018-11-03T21:02:13.938Z,51.00
2018-11-03T21:04:44.668Z,50.90
2018-11-03T21:07:15.588Z,50.80
2018-11-03T21:09:46.408Z,51.00
2018-11-03T21:12:17.646Z,51.10
2018-11-03T21:14:48.906Z,51.10
2018-11-03T21:17:19.780Z,51.10
2018-11-03T21:19:50.853Z,51.10
2018-11-03T21:22:22.014Z,51.10
2018-11-03T21:24:52.595Z,51.20
2018-11-03T21:27:23.402Z,51.30
2018-11-03T21:29:53.806Z,51.30
2018-11-03T21:32:24.860Z,51.60
2018-11-03T21:34:56.382Z,51.30
2018-11-03T21:37:27.248Z,51.30
2018-11-03T21:39:58.278Z,51.30
2018-11-03T21:42:29.130Z,51.40
2018-11-03T21:44:59.850Z,51.80
2018-11-03T21:47:31.130Z,51.50
2018-11-03T21:50:02.141Z,51.50
2018-11-03T21:52:32.980Z,51.30
2018-11-03T21:55:04.108Z,51.30
2018-11-03T21:57:35.324Z,51.50
2018-11-03T22:00:08.371Z,51.40
2018-11-03T22:02:39.301Z,51.90
2018-11-03T22:05:11.948Z,51.50
2018-11-03T22:07:43.883Z,51.20
2018-11-03T22:10:14.855Z,51.40
2018-11-03T22:12:45.553Z,51.60
2018-11-03T22:15:16.333Z,51.40
2018-11-03T22:17:47.214Z,51.50
2018-11-03T22:20:19.104Z,51.50
2018-11-03T22:22:49.840Z,51.60
2018-11-03T22:25:20.758Z,51.50
2018-11-03T22:27:51.678Z,51.60
2018-11-03T22:30:22.798Z,51.70
2018-11-03T22:32:53.685Z,51.70
2018-11-03T22:35:24.458Z,51.70
2018-11-03T22:37:55.343Z,51.80
2018-11-03T22:40:26.777Z,51.70
2018-11-03T22:42:57.657Z,51.60
2018-11-03T22:45:28.532Z,51.60
2018-11-03T22:47:59.866Z,51.60
2018-11-03T22:50:30.752Z,51.60
2018-11-03T22:53:01.437Z,51.70
2018-11-03T22:55:32.213Z,51.70
2018-11-03T22:58:03.018Z,51.80
2018-11-03T23:00:38.851Z,51.70
2018-11-03T23:03:09.898Z,51.80
2018-11-03T23:05:40.918Z,51.90
2018-11-03T23:08:12.027Z,51.90
2018-11-03T23:10:42.777Z,51.80
2018-11-03T23:13:14.042Z,52.00
2018-11-03T23:15:45.192Z,51.90
2018-11-03T23:18:15.585Z,52.00
2018-11-03T23:20:46.586Z,52.00
2018-11-03T23:23:17.486Z,52.10
2018-11-03T23:25:48.457Z,52.00
2018-11-03T23:28:19.685Z,52.10
2018-11-03T23:30:50.589Z,52.00
2018-11-03T23:33:21.711Z,52.00
2018-11-03T23:35:52.526Z,52.10
2018-11-03T23:38:23.396Z,52.10
2018-11-03T23:40:54.294Z,52.10
2018-11-03T23:43:25.637Z,52.10
2018-11-03T23:45:56.528Z,52.10
2018-11-03T23:48:27.305Z,52.10
2018-11-03T23:50:58.344Z,52.00
2018-11-03T23:53:30.029Z,52.10
2018-11-03T23:56:00.884Z,52.00
2018-11-03T23:58:31.676Z,51.90
